sensor_id;sensor_type;location;lat;lon;timestamp;pressure;altitude;pressure_sealevel;temperature;humidity
58668;BME280;59852;43.086;25.634;2023-08-24T00:01:25;98755.56;;;26.11;49.74
58668;BME280;59852;43.086;25.634;2023-08-24T00:03:51;98761.97;;;25.90;49.67
58668;BME280;59852;43.086;25.634;2023-08-24T00:06:16;98760.53;;;25.81;50.72
58668;BME280;59852;43.086;25.634;2023-08-24T00:08:41;98773.69;;;25.62;50.95
58668;BME280;59852;43.086;25.634;2023-08-24T00:11:07;98773.31;;;25.79;51.02
58668;BME280;59852;43.086;25.634;2023-08-24T00:13:33;98768.75;;;25.59;51.35
58668;BME280;59852;43.086;25.634;2023-08-24T00:15:58;98768.78;;;25.72;50.58
58668;BME280;59852;43.086;25.634;2023-08-24T00:18:24;98773.53;;;25.77;50.41
58668;BME280;59852;43.086;25.634;2023-08-24T00:20:49;98770.84;;;25.70;50.96
58668;BME280;59852;43.086;25.634;2023-08-24T00:23:16;98765.84;;;25.54;51.63
58668;BME280;59852;43.086;25.634;2023-08-24T00:25:41;98770.81;;;25.57;51.53
58668;BME280;59852;43.086;25.634;2023-08-24T00:28:07;98763.38;;;25.39;52.06
58668;BME280;59852;43.086;25.634;2023-08-24T00:30:32;98764.59;;;25.43;52.22
58668;BME280;59852;43.086;25.634;2023-08-24T00:32:58;98765.00;;;25.27;52.80
58668;BME280;59852;43.086;25.634;2023-08-24T00:35:23;98768.69;;;25.33;52.76
58668;BME280;59852;43.086;25.634;2023-08-24T00:37:48;98778.44;;;25.67;52.31
58668;BME280;59852;43.086;25.634;2023-08-24T00:40:15;98786.91;;;25.84;53.20
58668;BME280;59852;43.086;25.634;2023-08-24T00:42:42;98797.03;;;25.88;52.13
58668;BME280;59852;43.086;25.634;2023-08-24T00:45:08;98791.00;;;25.66;51.61
58668;BME280;59852;43.086;25.634;2023-08-24T00:47:37;98780.28;;;25.60;51.70
58668;BME280;59852;43.086;25.634;2023-08-24T00:50:05;98787.75;;;25.71;52.69
58668;BME280;59852;43.086;25.634;2023-08-24T00:52:31;98787.09;;;25.76;52.11
58668;BME280;59852;43.086;25.634;2023-08-24T00:54:57;98781.09;;;25.60;52.38
58668;BME280;59852;43.086;25.634;2023-08-24T00:57:23;98779.44;;;25.66;51.74
58668;BME280;59852;43.086;25.634;2023-08-24T00:59:49;98776.56;;;25.54;51.52
58668;BME280;59852;43.086;25.634;2023-08-24T01:02:14;98778.44;;;25.67;52.07
58668;BME280;59852;43.086;25.634;2023-08-24T01:04:42;98794.31;;;25.68;52.69
58668;BME280;59852;43.086;25.634;2023-08-24T01:07:08;98785.66;;;25.73;52.33
58668;BME280;59852;43.086;25.634;2023-08-24T01:09:34;98768.97;;;25.58;53.11
58668;BME280;59852;43.086;25.634;2023-08-24T01:12:02;98766.84;;;25.33;54.09
58668;BME280;59852;43.086;25.634;2023-08-24T01:14:30;98779.69;;;24.97;56.52
58668;BME280;59852;43.086;25.634;2023-08-24T01:17:02;98767.25;;;25.24;56.05
58668;BME280;59852;43.086;25.634;2023-08-24T01:19:42;98767.56;;;25.01;57.39
58668;BME280;59852;43.086;25.634;2023-08-24T01:27:39;98753.13;;;24.41;63.98
58668;BME280;59852;43.086;25.634;2023-08-24T01:30:05;98745.56;;;24.51;64.78
58668;BME280;59852;43.086;25.634;2023-08-24T01:32:31;98745.81;;;24.63;65.12
58668;BME280;59852;43.086;25.634;2023-08-24T01:34:57;98748.06;;;24.59;64.52
58668;BME280;59852;43.086;25.634;2023-08-24T01:37:22;98747.38;;;24.44;65.15
58668;BME280;59852;43.086;25.634;2023-08-24T01:39:58;98738.06;;;24.33;65.25
58668;BME280;59852;43.086;25.634;2023-08-24T01:42:26;98745.50;;;24.10;65.18
58668;BME280;59852;43.086;25.634;2023-08-24T01:44:56;98747.63;;;24.21;66.22
58668;BME280;59852;43.086;25.634;2023-08-24T01:47:24;98744.19;;;24.62;63.92
58668;BME280;59852;43.086;25.634;2023-08-24T01:49:50;98736.94;;;24.49;64.36
58668;BME280;59852;43.086;25.634;2023-08-24T01:52:16;98741.66;;;24.19;65.07
58668;BME280;59852;43.086;25.634;2023-08-24T01:54:42;98727.09;;;23.93;64.58
58668;BME280;59852;43.086;25.634;2023-08-24T01:57:08;98727.16;;;24.00;65.35
58668;BME280;59852;43.086;25.634;2023-08-24T01:59:33;98740.88;;;23.90;63.91
58668;BME280;59852;43.086;25.634;2023-08-24T02:01:59;98731.72;;;23.78;64.19
58668;BME280;59852;43.086;25.634;2023-08-24T02:04:24;98739.63;;;23.93;63.75
58668;BME280;59852;43.086;25.634;2023-08-24T02:06:49;98738.34;;;23.89;64.04
58668;BME280;59852;43.086;25.634;2023-08-24T02:09:15;98737.72;;;23.80;64.01
58668;BME280;59852;43.086;25.634;2023-08-24T02:11:40;98734.97;;;24.01;63.37
58668;BME280;59852;43.086;25.634;2023-08-24T02:14:05;98729.66;;;24.08;62.97
58668;BME280;59852;43.086;25.634;2023-08-24T02:16:31;98736.69;;;24.16;62.77
58668;BME280;59852;43.086;25.634;2023-08-24T02:18:56;98737.88;;;24.35;62.08
58668;BME280;59852;43.086;25.634;2023-08-24T02:21:22;98736.53;;;24.52;60.77
58668;BME280;59852;43.086;25.634;2023-08-24T02:23:47;98734.22;;;24.42;60.12
58668;BME280;59852;43.086;25.634;2023-08-24T02:26:12;98732.97;;;24.45;60.29
58668;BME280;59852;43.086;25.634;2023-08-24T02:28:38;98734.41;;;24.41;60.11
58668;BME280;59852;43.086;25.634;2023-08-24T02:31:03;98727.69;;;24.23;60.25
58668;BME280;59852;43.086;25.634;2023-08-24T02:33:30;98728.81;;;24.36;59.91
58668;BME280;59852;43.086;25.634;2023-08-24T02:35:55;98722.16;;;24.25;59.78
58668;BME280;59852;43.086;25.634;2023-08-24T02:38:21;98717.56;;;24.47;59.99
58668;BME280;59852;43.086;25.634;2023-08-24T02:40:46;98718.31;;;24.34;59.50
58668;BME280;59852;43.086;25.634;2023-08-24T02:43:11;98721.75;;;24.28;59.60
58668;BME280;59852;43.086;25.634;2023-08-24T02:45:38;98716.22;;;24.29;59.71
58668;BME280;59852;43.086;25.634;2023-08-24T02:48:03;98721.75;;;24.28;59.75
58668;BME280;59852;43.086;25.634;2023-08-24T02:50:29;98720.38;;;24.32;59.41
58668;BME280;59852;43.086;25.634;2023-08-24T02:52:54;98721.75;;;24.28;59.60
58668;BME280;59852;43.086;25.634;2023-08-24T02:55:19;98715.50;;;24.42;59.32
58668;BME280;59852;43.086;25.634;2023-08-24T02:57:45;98713.22;;;24.39;59.32
58668;BME280;59852;43.086;25.634;2023-08-24T03:00:10;98713.19;;;24.33;59.43
58668;BME280;59852;43.086;25.634;2023-08-24T03:02:38;98714.75;;;24.20;59.67
58668;BME280;59852;43.086;25.634;2023-08-24T03:05:04;98716.19;;;24.23;59.67
58668;BME280;59852;43.086;25.634;2023-08-24T03:07:29;98719.47;;;24.25;59.79
58668;BME280;59852;43.086;25.634;2023-08-24T03:09:54;98725.31;;;24.35;59.74
58668;BME280;59852;43.086;25.634;2023-08-24T03:12:20;98726.56;;;24.33;58.60
58668;BME280;59852;43.086;25.634;2023-08-24T03:14:45;98718.75;;;24.31;59.04
58668;BME280;59852;43.086;25.634;2023-08-24T03:17:11;98725.44;;;24.20;58.85
58668;BME280;59852;43.086;25.634;2023-08-24T03:19:36;98729.56;;;24.23;59.31
58668;BME280;59852;43.086;25.634;2023-08-24T03:22:01;98729.59;;;24.29;59.16
58668;BME280;59852;43.086;25.634;2023-08-24T03:24:27;98740.00;;;24.52;59.14
58668;BME280;59852;43.086;25.634;2023-08-24T03:26:52;98733.19;;;24.15;59.36
58668;BME280;59852;43.086;25.634;2023-08-24T03:29:18;98739.88;;;23.98;59.86
58668;BME280;59852;43.086;25.634;2023-08-24T03:31:43;98737.78;;;23.93;60.69
58668;BME280;59852;43.086;25.634;2023-08-24T03:34:09;98737.88;;;24.07;60.46
58668;BME280;59852;43.086;25.634;2023-08-24T03:36:34;98743.84;;;24.37;60.27
58668;BME280;59852;43.086;25.634;2023-08-24T03:38:59;98751.34;;;24.54;60.40
58668;BME280;59852;43.086;25.634;2023-08-24T03:41:24;98752.16;;;24.48;59.48
58668;BME280;59852;43.086;25.634;2023-08-24T03:43:50;98751.63;;;24.03;59.70
58668;BME280;59852;43.086;25.634;2023-08-24T03:46:15;98752.19;;;24.27;59.72
58668;BME280;59852;43.086;25.634;2023-08-24T03:48:41;98767.53;;;24.40;59.68
58668;BME280;59852;43.086;25.634;2023-08-24T03:51:06;98758.06;;;24.16;59.80
58668;BME280;59852;43.086;25.634;2023-08-24T03:53:31;98766.28;;;24.14;60.57
58668;BME280;59852;43.086;25.634;2023-08-24T03:55:57;98760.53;;;24.17;60.55
58668;BME280;59852;43.086;25.634;2023-08-24T03:58:23;98764.59;;;24.07;60.34
58668;BME280;59852;43.086;25.634;2023-08-24T04:00:49;98768.13;;;24.14;61.04
58668;BME280;59852;43.086;25.634;2023-08-24T04:03:15;98762.03;;;24.20;60.90
58668;BME280;59852;43.086;25.634;2023-08-24T04:05:40;98760.28;;;24.34;60.14
58668;BME280;59852;43.086;25.634;2023-08-24T04:08:06;98762.44;;;24.23;61.25
58668;BME280;59852;43.086;25.634;2023-08-24T04:10:32;98762.38;;;24.45;61.34
58668;BME280;59852;43.086;25.634;2023-08-24T04:12:57;98768.22;;;24.27;63.38
58668;BME280;59852;43.086;25.634;2023-08-24T04:15:23;98780.88;;;24.12;63.98
58668;BME280;59852;43.086;25.634;2023-08-24T04:17:48;98778.69;;;24.22;63.94
58668;BME280;59852;43.086;25.634;2023-08-24T04:20:14;98778.84;;;24.42;63.25
58668;BME280;59852;43.086;25.634;2023-08-24T04:22:39;98786.28;;;24.53;62.40
58668;BME280;59852;43.086;25.634;2023-08-24T04:25:05;98792.56;;;24.32;63.23
58668;BME280;59852;43.086;25.634;2023-08-24T04:27:31;98795.47;;;24.09;64.08
58668;BME280;59852;43.086;25.634;2023-08-24T04:29:56;98792.25;;;23.92;64.79
58668;BME280;59852;43.086;25.634;2023-08-24T04:32:22;98802.00;;;24.07;64.53
58668;BME280;59852;43.086;25.634;2023-08-24T04:34:48;98801.81;;;24.36;63.01
58668;BME280;59852;43.086;25.634;2023-08-24T04:37:13;98805.72;;;24.34;63.90
58668;BME280;59852;43.086;25.634;2023-08-24T04:39:39;98794.81;;;24.07;64.38
58668;BME280;59852;43.086;25.634;2023-08-24T04:42:04;98792.13;;;24.07;65.77
58668;BME280;59852;43.086;25.634;2023-08-24T04:44:31;98786.38;;;24.31;64.87
58668;BME280;59852;43.086;25.634;2023-08-24T04:46:56;98782.75;;;24.39;65.09
58668;BME280;59852;43.086;25.634;2023-08-24T04:49:21;98795.53;;;24.22;65.30
58668;BME280;59852;43.086;25.634;2023-08-24T04:51:47;98786.44;;;24.45;65.85
58668;BME280;59852;43.086;25.634;2023-08-24T04:54:12;98797.25;;;24.65;64.72
58668;BME280;59852;43.086;25.634;2023-08-24T04:56:38;98805.53;;;24.70;65.13
58668;BME280;59852;43.086;25.634;2023-08-24T04:59:03;98795.19;;;24.60;65.65
58668;BME280;59852;43.086;25.634;2023-08-24T05:01:28;98794.25;;;24.81;64.92
58668;BME280;59852;43.086;25.634;2023-08-24T05:03:56;98798.78;;;24.87;62.60
58668;BME280;59852;43.086;25.634;2023-08-24T05:06:22;98805.13;;;24.73;60.91
58668;BME280;59852;43.086;25.634;2023-08-24T05:08:47;98803.06;;;24.75;62.28
58668;BME280;59852;43.086;25.634;2023-08-24T05:11:13;98799.97;;;25.12;62.17
58668;BME280;59852;43.086;25.634;2023-08-24T05:13:39;98806.00;;;25.41;61.80
58668;BME280;59852;43.086;25.634;2023-08-24T05:16:04;98803.31;;;25.28;61.70
58668;BME280;59852;43.086;25.634;2023-08-24T05:18:30;98811.81;;;25.64;60.94
58668;BME280;59852;43.086;25.634;2023-08-24T05:20:55;98803.22;;;25.89;60.71
58668;BME280;59852;43.086;25.634;2023-08-24T05:23:20;98806.31;;;25.99;60.15
58668;BME280;59852;43.086;25.634;2023-08-24T05:25:46;98805.88;;;26.09;59.75
58668;BME280;59852;43.086;25.634;2023-08-24T05:28:11;98804.84;;;26.03;59.78
58668;BME280;59852;43.086;25.634;2023-08-24T05:30:36;98811.44;;;26.14;59.78
58668;BME280;59852;43.086;25.634;2023-08-24T05:33:02;98812.06;;;26.16;59.10
58668;BME280;59852;43.086;25.634;2023-08-24T05:35:28;98813.91;;;26.28;58.94
58668;BME280;59852;43.086;25.634;2023-08-24T05:37:53;98806.06;;;26.40;58.84
58668;BME280;59852;43.086;25.634;2023-08-24T05:40:18;98798.44;;;26.17;58.86
58668;BME280;59852;43.086;25.634;2023-08-24T05:42:44;98800.72;;;26.07;58.74
58668;BME280;59852;43.086;25.634;2023-08-24T05:45:09;98807.13;;;25.80;58.09
58668;BME280;59852;43.086;25.634;2023-08-24T05:47:34;98814.28;;;25.66;60.29
58668;BME280;59852;43.086;25.634;2023-08-24T05:50:00;98811.03;;;25.97;59.96
58668;BME280;59852;43.086;25.634;2023-08-24T05:52:25;98807.53;;;25.83;59.69
58668;BME280;59852;43.086;25.634;2023-08-24T05:54:50;98812.41;;;25.53;61.36
58668;BME280;59852;43.086;25.634;2023-08-24T05:57:16;98808.72;;;25.67;60.61
58668;BME280;59852;43.086;25.634;2023-08-24T05:59:41;98808.56;;;25.89;59.57
58668;BME280;59852;43.086;25.634;2023-08-24T06:02:07;98811.47;;;26.07;59.45
58668;BME280;59852;43.086;25.634;2023-08-24T06:04:32;98808.34;;;25.90;60.32
58668;BME280;59852;43.086;25.634;2023-08-24T06:06:57;98816.41;;;26.17;59.62
58668;BME280;59852;43.086;25.634;2023-08-24T06:09:22;98827.13;;;25.97;59.69
58668;BME280;59852;43.086;25.634;2023-08-24T06:11:48;98833.94;;;26.06;60.02
58668;BME280;59852;43.086;25.634;2023-08-24T06:14:13;98833.50;;;26.09;59.93
58668;BME280;59852;43.086;25.634;2023-08-24T06:16:38;98829.59;;;26.12;58.65
58668;BME280;59852;43.086;25.634;2023-08-24T06:19:04;98834.53;;;26.08;59.02
58668;BME280;59852;43.086;25.634;2023-08-24T06:21:29;98841.31;;;26.04;59.03
58668;BME280;59852;43.086;25.634;2023-08-24T06:23:55;98844.03;;;26.11;58.34
58668;BME280;59852;43.086;25.634;2023-08-24T06:26:20;98844.22;;;25.89;59.51
58668;BME280;59852;43.086;25.634;2023-08-24T06:28:45;98857.03;;;26.47;58.05
58668;BME280;59852;43.086;25.634;2023-08-24T06:31:11;98845.88;;;26.43;57.25
58668;BME280;59852;43.086;25.634;2023-08-24T06:33:37;98841.88;;;26.79;56.81
58668;BME280;59852;43.086;25.634;2023-08-24T06:36:03;98847.97;;;27.12;56.62
58668;BME280;59852;43.086;25.634;2023-08-24T06:38:31;98859.63;;;26.73;57.58
58668;BME280;59852;43.086;25.634;2023-08-24T06:40:59;98851.28;;;27.01;57.11
58668;BME280;59852;43.086;25.634;2023-08-24T06:43:25;98856.47;;;27.03;56.48
58668;BME280;59852;43.086;25.634;2023-08-24T06:45:50;98854.75;;;27.22;55.55
58668;BME280;59852;43.086;25.634;2023-08-24T06:48:16;98853.47;;;27.31;55.07
58668;BME280;59852;43.086;25.634;2023-08-24T06:50:43;98848.41;;;27.09;56.27
58668;BME280;59852;43.086;25.634;2023-08-24T06:53:08;98851.91;;;27.10;55.92
58668;BME280;59852;43.086;25.634;2023-08-24T06:55:33;98854.81;;;27.15;55.79
58668;BME280;59852;43.086;25.634;2023-08-24T06:57:59;98859.97;;;27.10;55.96
58668;BME280;59852;43.086;25.634;2023-08-24T07:00:24;98850.69;;;26.99;56.30
58668;BME280;59852;43.086;25.634;2023-08-24T07:02:50;98855.66;;;27.02;56.92
58668;BME280;59852;43.086;25.634;2023-08-24T07:05:16;98853.44;;;27.37;55.92
58668;BME280;59852;43.086;25.634;2023-08-24T07:07:47;98844.22;;;27.58;56.05
58668;BME280;59852;43.086;25.634;2023-08-24T07:10:12;98845.56;;;27.81;54.34
58668;BME280;59852;43.086;25.634;2023-08-24T07:12:38;98843.91;;;27.80;54.64
58668;BME280;59852;43.086;25.634;2023-08-24T07:15:09;98833.84;;;27.68;54.83
58668;BME280;59852;43.086;25.634;2023-08-24T07:17:34;98840.28;;;27.92;54.56
58668;BME280;59852;43.086;25.634;2023-08-24T07:20:00;98835.88;;;28.29;53.84
58668;BME280;59852;43.086;25.634;2023-08-24T07:22:25;98831.63;;;28.40;53.88
58668;BME280;59852;43.086;25.634;2023-08-24T07:24:53;98832.53;;;28.34;53.23
58668;BME280;59852;43.086;25.634;2023-08-24T07:27:19;98832.03;;;28.44;52.34
58668;BME280;59852;43.086;25.634;2023-08-24T07:29:44;98834.66;;;28.69;52.68
58668;BME280;59852;43.086;25.634;2023-08-24T07:32:10;98836.38;;;28.81;52.62
58668;BME280;59852;43.086;25.634;2023-08-24T07:34:35;98826.56;;;28.87;51.80
58668;BME280;59852;43.086;25.634;2023-08-24T07:37:01;98832.66;;;29.01;51.31
58668;BME280;59852;43.086;25.634;2023-08-24T07:39:26;98830.25;;;29.11;51.59
58668;BME280;59852;43.086;25.634;2023-08-24T07:41:52;98826.84;;;29.34;50.68
58668;BME280;59852;43.086;25.634;2023-08-24T07:44:17;98830.03;;;29.42;49.91
58668;BME280;59852;43.086;25.634;2023-08-24T07:46:43;98828.66;;;29.22;49.78
58668;BME280;59852;43.086;25.634;2023-08-24T07:49:08;98823.75;;;29.49;49.10
58668;BME280;59852;43.086;25.634;2023-08-24T07:51:34;98826.75;;;29.70;46.68
58668;BME280;59852;43.086;25.634;2023-08-24T07:53:59;98824.91;;;29.83;46.25
58668;BME280;59852;43.086;25.634;2023-08-24T07:56:29;98823.44;;;29.68;43.96
58668;BME280;59852;43.086;25.634;2023-08-24T07:58:55;98819.13;;;29.79;42.23
58668;BME280;59852;43.086;25.634;2023-08-24T08:01:20;98810.63;;;29.94;42.38
58668;BME280;59852;43.086;25.634;2023-08-24T08:03:46;98811.13;;;30.26;42.35
58668;BME280;59852;43.086;25.634;2023-08-24T08:06:11;98816.66;;;30.19;43.23
58668;BME280;59852;43.086;25.634;2023-08-24T08:08:37;98813.31;;;30.06;42.39
58668;BME280;59852;43.086;25.634;2023-08-24T08:11:02;98811.38;;;30.13;42.72
58668;BME280;59852;43.086;25.634;2023-08-24T08:13:28;98810.91;;;30.39;43.15
58668;BME280;59852;43.086;25.634;2023-08-24T08:16:00;98812.75;;;30.62;41.93
58668;BME280;59852;43.086;25.634;2023-08-24T08:18:25;98811.56;;;30.81;41.64
58668;BME280;59852;43.086;25.634;2023-08-24T08:20:50;98809.94;;;30.57;42.00
58668;BME280;59852;43.086;25.634;2023-08-24T08:23:17;98816.97;;;30.81;41.08
58668;BME280;59852;43.086;25.634;2023-08-24T08:25:42;98809.69;;;30.82;42.35
58668;BME280;59852;43.086;25.634;2023-08-24T08:28:07;98807.69;;;30.77;42.76
58668;BME280;59852;43.086;25.634;2023-08-24T08:30:33;98809.22;;;30.73;42.29
58668;BME280;59852;43.086;25.634;2023-08-24T08:32:58;98800.44;;;31.06;42.12
58668;BME280;59852;43.086;25.634;2023-08-24T08:35:23;98803.91;;;30.90;41.67
58668;BME280;59852;43.086;25.634;2023-08-24T08:37:49;98799.50;;;30.72;42.06
58668;BME280;59852;43.086;25.634;2023-08-24T08:40:15;98795.56;;;30.92;42.48
58668;BME280;59852;43.086;25.634;2023-08-24T08:42:40;98794.81;;;31.08;42.27
58668;BME280;59852;43.086;25.634;2023-08-24T08:45:08;98787.97;;;31.46;41.50
58668;BME280;59852;43.086;25.634;2023-08-24T08:47:33;98790.84;;;31.56;41.35
58668;BME280;59852;43.086;25.634;2023-08-24T08:49:59;98793.16;;;31.64;40.86
58668;BME280;59852;43.086;25.634;2023-08-24T08:52:27;98780.34;;;31.43;41.39
58668;BME280;59852;43.086;25.634;2023-08-24T08:54:53;98786.28;;;31.73;40.44
58668;BME280;59852;43.086;25.634;2023-08-24T08:57:18;98784.41;;;31.57;42.43
58668;BME280;59852;43.086;25.634;2023-08-24T08:59:44;98779.34;;;31.77;41.27
58668;BME280;59852;43.086;25.634;2023-08-24T09:02:10;98785.34;;;31.51;43.17
58668;BME280;59852;43.086;25.634;2023-08-24T09:04:38;98787.28;;;31.84;40.85
58668;BME280;59852;43.086;25.634;2023-08-24T09:07:04;98783.09;;;32.10;40.48
58668;BME280;59852;43.086;25.634;2023-08-24T09:09:36;98774.84;;;32.00;40.31
58668;BME280;59852;43.086;25.634;2023-08-24T09:12:03;98772.44;;;32.20;40.30
58668;BME280;59852;43.086;25.634;2023-08-24T09:14:28;98774.31;;;32.19;40.24
58668;BME280;59852;43.086;25.634;2023-08-24T09:16:54;98763.69;;;32.51;40.32
58668;BME280;59852;43.086;25.634;2023-08-24T09:19:19;98766.94;;;32.15;40.83
58668;BME280;59852;43.086;25.634;2023-08-24T09:21:54;98769.22;;;32.23;39.32
58668;BME280;59852;43.086;25.634;2023-08-24T09:24:28;98769.13;;;32.35;40.12
58668;BME280;59852;43.086;25.634;2023-08-24T09:26:53;98753.06;;;32.45;38.67
58668;BME280;59852;43.086;25.634;2023-08-24T09:29:19;98765.78;;;32.28;38.27
58668;BME280;59852;43.086;25.634;2023-08-24T09:31:45;98763.72;;;32.35;38.15
58668;BME280;59852;43.086;25.634;2023-08-24T09:34:10;98755.94;;;32.38;40.45
58668;BME280;59852;43.086;25.634;2023-08-24T09:36:36;98758.91;;;32.59;38.04
58668;BME280;59852;43.086;25.634;2023-08-24T09:39:02;98745.50;;;32.69;37.41
58668;BME280;59852;43.086;25.634;2023-08-24T09:41:43;98740.25;;;32.62;37.95
58668;BME280;59852;43.086;25.634;2023-08-24T09:44:08;98742.03;;;32.95;37.75
58668;BME280;59852;43.086;25.634;2023-08-24T09:46:34;98738.25;;;32.74;37.51
58668;BME280;59852;43.086;25.634;2023-08-24T09:49:00;98731.50;;;32.77;37.73
58668;BME280;59852;43.086;25.634;2023-08-24T09:51:27;98724.44;;;33.25;38.74
58668;BME280;59852;43.086;25.634;2023-08-24T09:53:52;98731.25;;;32.57;38.26
58668;BME280;59852;43.086;25.634;2023-08-24T09:56:22;98726.16;;;32.60;38.34
58668;BME280;59852;43.086;25.634;2023-08-24T09:58:49;98723.63;;;32.97;37.59
58668;BME280;59852;43.086;25.634;2023-08-24T10:01:16;98718.59;;;32.62;38.44
58668;BME280;59852;43.086;25.634;2023-08-24T10:03:42;98729.16;;;33.07;38.10
58668;BME280;59852;43.086;25.634;2023-08-24T10:06:09;98723.47;;;33.09;37.19
58668;BME280;59852;43.086;25.634;2023-08-24T10:08:36;98713.63;;;33.30;36.36
58668;BME280;59852;43.086;25.634;2023-08-24T10:11:02;98716.34;;;33.30;36.64
58668;BME280;59852;43.086;25.634;2023-08-24T10:16:12;98704.41;;;33.26;37.25
58668;BME280;59852;43.086;25.634;2023-08-24T10:18:38;98703.13;;;33.06;37.49
58668;BME280;59852;43.086;25.634;2023-08-24T10:21:05;98704.97;;;33.33;37.78
58668;BME280;59852;43.086;25.634;2023-08-24T10:23:31;98700.41;;;33.06;38.58
58668;BME280;59852;43.086;25.634;2023-08-24T10:25:56;98698.56;;;33.12;35.92
58668;BME280;59852;43.086;25.634;2023-08-24T10:28:23;98694.13;;;33.33;37.76
58668;BME280;59852;43.086;25.634;2023-08-24T10:30:52;98683.97;;;32.86;36.12
58668;BME280;59852;43.086;25.634;2023-08-24T10:33:17;98684.78;;;32.43;37.23
58668;BME280;59852;43.086;25.634;2023-08-24T10:35:43;98680.41;;;32.20;37.92
58668;BME280;59852;43.086;25.634;2023-08-24T10:38:22;98677.00;;;32.73;36.91
58668;BME280;59852;43.086;25.634;2023-08-24T10:40:47;98674.75;;;33.14;35.29
58668;BME280;59852;43.086;25.634;2023-08-24T10:43:13;98676.16;;;33.22;36.37
58668;BME280;59852;43.086;25.634;2023-08-24T10:48:22;98660.94;;;33.16;35.13
58668;BME280;59852;43.086;25.634;2023-08-24T10:51:42;98660.94;;;33.48;34.45
58668;BME280;59852;43.086;25.634;2023-08-24T10:53:40;98652.59;;;33.54;35.05
58668;BME280;59852;43.086;25.634;2023-08-24T10:56:12;98648.88;;;33.71;35.38
58668;BME280;59852;43.086;25.634;2023-08-24T10:58:40;98642.09;;;33.63;35.57
58668;BME280;59852;43.086;25.634;2023-08-24T11:01:05;98631.72;;;33.97;33.81
58668;BME280;59852;43.086;25.634;2023-08-24T11:03:33;98634.63;;;33.85;35.15
58668;BME280;59852;43.086;25.634;2023-08-24T11:05:59;98626.88;;;33.62;32.79
58668;BME280;59852;43.086;25.634;2023-08-24T11:11:17;98613.06;;;34.16;32.59
58668;BME280;59852;43.086;25.634;2023-08-24T11:14:12;98615.88;;;33.84;33.38
58668;BME280;59852;43.086;25.634;2023-08-24T11:16:44;98619.53;;;33.62;34.09
58668;BME280;59852;43.086;25.634;2023-08-24T11:19:10;98618.72;;;33.62;35.78
58668;BME280;59852;43.086;25.634;2023-08-24T11:21:36;98610.56;;;33.99;33.25
58668;BME280;59852;43.086;25.634;2023-08-24T11:24:01;98610.13;;;33.75;32.99
58668;BME280;59852;43.086;25.634;2023-08-24T11:26:27;98603.53;;;34.08;33.34
58668;BME280;59852;43.086;25.634;2023-08-24T11:28:54;98606.75;;;33.95;32.57
58668;BME280;59852;43.086;25.634;2023-08-24T11:31:20;98604.63;;;34.02;33.08
58668;BME280;59852;43.086;25.634;2023-08-24T11:33:46;98597.25;;;33.98;33.00
58668;BME280;59852;43.086;25.634;2023-08-24T11:36:11;98589.47;;;34.16;33.35
58668;BME280;59852;43.086;25.634;2023-08-24T11:38:41;98590.59;;;34.36;33.10
58668;BME280;59852;43.086;25.634;2023-08-24T11:43:38;98579.44;;;34.27;32.07
58668;BME280;59852;43.086;25.634;2023-08-24T11:46:03;98576.16;;;34.15;32.93
58668;BME280;59852;43.086;25.634;2023-08-24T11:48:29;98573.72;;;34.18;32.08
58668;BME280;59852;43.086;25.634;2023-08-24T11:50:55;98575.53;;;33.98;33.08
58668;BME280;59852;43.086;25.634;2023-08-24T11:53:22;98574.66;;;33.40;36.37
58668;BME280;59852;43.086;25.634;2023-08-24T11:55:49;98568.59;;;32.90;35.18
58668;BME280;59852;43.086;25.634;2023-08-24T11:58:15;98570.44;;;32.58;34.70
58668;BME280;59852;43.086;25.634;2023-08-24T12:00:43;98554.69;;;32.54;35.14
58668;BME280;59852;43.086;25.634;2023-08-24T12:03:09;98559.53;;;32.52;36.63
58668;BME280;59852;43.086;25.634;2023-08-24T12:05:35;98558.34;;;32.43;36.68
58668;BME280;59852;43.086;25.634;2023-08-24T12:08:00;98562.22;;;32.25;37.22
58668;BME280;59852;43.086;25.634;2023-08-24T12:10:26;98551.47;;;32.31;37.40
58668;BME280;59852;43.086;25.634;2023-08-24T12:13:00;98555.81;;;32.32;37.60
58668;BME280;59852;43.086;25.634;2023-08-24T12:15:27;98551.63;;;32.24;37.28
58668;BME280;59852;43.086;25.634;2023-08-24T12:17:53;98552.44;;;32.24;40.37
58668;BME280;59852;43.086;25.634;2023-08-24T12:20:19;98550.16;;;32.11;37.02
58668;BME280;59852;43.086;25.634;2023-08-24T12:22:49;98543.81;;;32.01;37.42
58668;BME280;59852;43.086;25.634;2023-08-24T12:25:16;98543.28;;;32.04;36.75
58668;BME280;59852;43.086;25.634;2023-08-24T12:27:41;98545.28;;;31.86;37.93
58668;BME280;59852;43.086;25.634;2023-08-24T12:30:07;98549.91;;;31.91;39.06
58668;BME280;59852;43.086;25.634;2023-08-24T12:32:46;98547.59;;;31.78;39.12
58668;BME280;59852;43.086;25.634;2023-08-24T12:35:11;98546.53;;;32.49;38.55
58668;BME280;59852;43.086;25.634;2023-08-24T12:37:37;98539.72;;;33.06;37.61
58668;BME280;59852;43.086;25.634;2023-08-24T12:40:03;98540.88;;;33.20;36.95
58668;BME280;59852;43.086;25.634;2023-08-24T12:42:30;98525.88;;;33.40;37.50
58668;BME280;59852;43.086;25.634;2023-08-24T12:44:56;98531.38;;;33.60;36.96
58668;BME280;59852;43.086;25.634;2023-08-24T12:47:21;98530.94;;;33.31;37.40
58668;BME280;59852;43.086;25.634;2023-08-24T12:49:47;98525.09;;;33.44;37.19
58668;BME280;59852;43.086;25.634;2023-08-24T12:52:12;98527.50;;;33.41;38.13
58668;BME280;59852;43.086;25.634;2023-08-24T12:54:37;98523.91;;;33.35;36.92
58668;BME280;59852;43.086;25.634;2023-08-24T12:57:03;98535.59;;;33.35;37.77
58668;BME280;59852;43.086;25.634;2023-08-24T12:59:28;98535.78;;;33.24;37.29
58668;BME280;59852;43.086;25.634;2023-08-24T13:01:53;98534.44;;;33.31;36.92